createdAt,value
2019-02-02T00:01:35.370Z,3.10
2019-02-02T00:03:10.376Z,3.10
2019-02-02T00:04:45.169Z,3.10
2019-02-02T00:06:20.976Z,3.10
2019-02-02T00:07:55.795Z,3.10
2019-02-02T00:09:30.833Z,3.10
2019-02-02T00:11:07.679Z,3.10
2019-02-02T00:12:42.704Z,3.20
2019-02-02T00:14:17.531Z,3.10
2019-02-02T00:15:52.675Z,3.10
2019-02-02T00:17:27.897Z,3.10
2019-02-02T00:19:02.800Z,3.10
2019-02-02T00:20:37.716Z,3.10
2019-02-02T00:22:13.011Z,3.10
2019-02-02T00:23:47.810Z,3.00
2019-02-02T00:25:22.731Z,3.00
2019-02-02T00:26:58.167Z,3.10
2019-02-02T00:28:33.227Z,3.00
2019-02-02T00:30:10.474Z,3.10
2019-02-02T00:31:45.474Z,3.00
2019-02-02T00:33:26.605Z,3.00
2019-02-02T00:35:01.778Z,3.00
2019-02-02T00:36:37.120Z,2.90
2019-02-02T00:38:12.286Z,2.90
2019-02-02T00:39:47.161Z,2.90
2019-02-02T00:41:21.987Z,2.90
2019-02-02T00:42:57.195Z,2.70
2019-02-02T00:44:32.310Z,2.70
2019-02-02T00:46:07.824Z,2.70
2019-02-02T00:47:43.044Z,2.70
2019-02-02T00:49:17.873Z,2.60
2019-02-02T00:50:53.073Z,2.60
2019-02-02T00:52:27.865Z,2.60
2019-02-02T00:54:02.729Z,2.50
2019-02-02T00:55:37.799Z,2.50
2019-02-02T00:57:12.610Z,2.40
2019-02-02T00:58:47.764Z,2.40
2019-02-02T01:00:23.168Z,2.40
2019-02-02T01:01:58.047Z,2.50
2019-02-02T01:03:33.262Z,2.50
2019-02-02T01:05:11.746Z,2.50
2019-02-02T01:06:46.647Z,2.40
2019-02-02T01:08:21.419Z,2.40
2019-02-02T01:09:56.361Z,2.40
2019-02-02T01:11:31.597Z,2.30
2019-02-02T01:13:07.374Z,2.30
2019-02-02T01:14:42.220Z,2.20
2019-02-02T01:16:17.108Z,2.40
2019-02-02T01:17:52.408Z,2.30
2019-02-02T01:19:27.225Z,2.30
2019-02-02T01:21:02.215Z,2.30
2019-02-02T01:22:37.414Z,2.40
2019-02-02T01:24:12.475Z,2.40
2019-02-02T01:25:47.336Z,2.50
2019-02-02T01:27:22.117Z,2.50
2019-02-02T01:28:57.220Z,2.50
2019-02-02T01:30:32.115Z,2.50
2019-02-02T01:32:07.230Z,2.60
2019-02-02T01:33:42.324Z,2.60
2019-02-02T01:35:17.834Z,2.60
2019-02-02T01:36:52.939Z,2.60
2019-02-02T01:38:27.818Z,2.50
2019-02-02T01:40:02.748Z,2.50
2019-02-02T01:41:37.674Z,2.60
2019-02-02T01:43:12.806Z,2.60
2019-02-02T01:44:47.694Z,2.50
2019-02-02T01:46:22.808Z,2.50
2019-02-02T01:47:58.735Z,2.50
2019-02-02T01:49:33.533Z,2.60
2019-02-02T01:51:09.416Z,2.70
2019-02-02T01:52:44.781Z,2.60
2019-02-02T01:54:19.688Z,2.60
2019-02-02T01:55:54.517Z,2.70
2019-02-02T01:57:29.329Z,2.70
2019-02-02T01:59:04.438Z,2.80
2019-02-02T02:00:40.874Z,2.80
2019-02-02T02:02:15.697Z,2.80
2019-02-02T02:03:50.574Z,2.80
2019-02-02T02:05:25.771Z,2.90
2019-02-02T02:07:01.027Z,2.90
2019-02-02T02:08:36.145Z,2.90
2019-02-02T02:10:13.383Z,2.90
2019-02-02T02:11:48.161Z,2.90
2019-02-02T02:13:23.244Z,2.80
2019-02-02T02:14:58.115Z,2.80
2019-02-02T02:16:33.173Z,2.80
2019-02-02T02:18:08.217Z,2.80
2019-02-02T02:19:43.068Z,2.80
2019-02-02T02:21:17.890Z,2.80
2019-02-02T02:22:52.911Z,2.80
2019-02-02T02:24:27.739Z,2.70
2019-02-02T02:26:02.659Z,2.70
2019-02-02T02:27:37.818Z,2.80
2019-02-02T02:29:12.794Z,2.70
2019-02-02T02:30:48.269Z,2.70
2019-02-02T02:32:23.131Z,2.70
2019-02-02T02:33:58.012Z,2.70
2019-02-02T02:35:33.126Z,2.80
2019-02-02T02:37:08.880Z,2.70
2019-02-02T02:38:43.669Z,2.70
2019-02-02T02:40:21.598Z,2.70
2019-02-02T02:41:56.660Z,2.70
2019-02-02T02:43:31.772Z,2.70
2019-02-02T02:45:07.520Z,2.70
2019-02-02T02:46:42.408Z,2.80
2019-02-02T02:48:17.559Z,2.70
2019-02-02T02:49:52.402Z,2.70
2019-02-02T02:51:27.201Z,2.70
2019-02-02T02:53:02.025Z,2.70
2019-02-02T02:54:36.811Z,2.80
2019-02-02T02:56:11.643Z,2.80
2019-02-02T02:57:46.716Z,2.80
2019-02-02T02:59:21.850Z,2.80
2019-02-02T03:00:56.734Z,2.80
2019-02-02T03:02:31.906Z,2.70
2019-02-02T03:04:06.870Z,2.70
2019-02-02T03:05:41.990Z,2.70
2019-02-02T03:07:19.417Z,2.70
2019-02-02T03:08:53.987Z,2.80
2019-02-02T03:10:29.158Z,2.80
2019-02-02T03:12:04.833Z,2.80
2019-02-02T03:13:39.634Z,2.80
2019-02-02T03:15:15.760Z,2.70
2019-02-02T03:16:50.615Z,2.80
2019-02-02T03:18:25.740Z,2.70
2019-02-02T03:20:05.931Z,2.80
2019-02-02T03:21:43.768Z,2.80
2019-02-02T03:23:17.626Z,2.80
2019-02-02T03:24:52.429Z,2.80
2019-02-02T03:26:27.769Z,2.80
2019-02-02T03:28:02.847Z,2.80
2019-02-02T03:29:37.693Z,2.80
2019-02-02T03:31:12.859Z,2.90
2019-02-02T03:32:48.331Z,2.90
2019-02-02T03:34:23.420Z,2.90
2019-02-02T03:35:58.533Z,2.90
2019-02-02T03:37:33.333Z,3.00
2019-02-02T03:39:12.983Z,3.00
2019-02-02T03:40:47.772Z,3.00
2019-02-02T03:42:22.858Z,2.90
2019-02-02T03:43:57.719Z,2.90
2019-02-02T03:45:32.588Z,2.90
2019-02-02T03:47:07.737Z,2.80
2019-02-02T03:48:42.570Z,2.80
2019-02-02T03:50:17.911Z,2.80
2019-02-02T03:51:53.340Z,2.80
2019-02-02T03:53:28.520Z,2.80
2019-02-02T03:55:03.338Z,2.70
2019-02-02T03:56:38.528Z,2.70
2019-02-02T03:58:13.337Z,2.70
2019-02-02T03:59:48.146Z,2.80
2019-02-02T04:01:23.223Z,2.80
2019-02-02T04:02:58.141Z,2.80
2019-02-02T04:04:33.559Z,2.80
2019-02-02T04:06:08.633Z,2.80
2019-02-02T04:07:43.764Z,2.70
2019-02-02T04:09:18.671Z,2.60
2019-02-02T04:10:53.744Z,2.60
2019-02-02T04:12:28.917Z,2.60
2019-02-02T04:14:03.785Z,2.60
2019-02-02T04:15:38.590Z,2.70
2019-02-02T04:17:13.732Z,2.70
2019-02-02T04:18:49.228Z,2.60
2019-02-02T04:20:24.386Z,2.60
2019-02-02T04:21:59.289Z,2.60
2019-02-02T04:23:34.173Z,2.60
2019-02-02T04:25:09.590Z,2.60
2019-02-02T04:26:44.978Z,2.60
2019-02-02T04:28:19.764Z,2.70
2019-02-02T04:29:55.074Z,2.70
2019-02-02T04:31:30.123Z,2.70
2019-02-02T04:33:05.265Z,2.70
2019-02-02T04:34:40.093Z,2.70
2019-02-02T04:36:15.163Z,2.80
2019-02-02T04:37:49.964Z,2.80
2019-02-02T04:39:24.788Z,2.80
2019-02-02T04:40:59.593Z,2.80
2019-02-02T04:42:34.389Z,2.70
2019-02-02T04:44:09.447Z,2.70
2019-02-02T04:45:44.536Z,2.80
2019-02-02T04:47:19.335Z,2.70
2019-02-02T04:48:54.128Z,2.70
2019-02-02T04:50:29.436Z,2.80
2019-02-02T04:52:04.618Z,2.70
2019-02-02T04:53:40.016Z,2.70
2019-02-02T04:55:17.643Z,2.70
2019-02-02T04:56:52.445Z,2.70
2019-02-02T04:58:27.606Z,2.70
2019-02-02T05:00:02.664Z,2.70
2019-02-02T05:01:37.482Z,2.70
2019-02-02T05:03:12.603Z,2.60
2019-02-02T05:04:47.432Z,2.70
2019-02-02T05:06:22.556Z,2.70
2019-02-02T05:07:57.430Z,2.70
2019-02-02T05:09:32.233Z,2.70
2019-02-02T05:11:07.056Z,2.70
2019-02-02T05:12:41.840Z,2.70
2019-02-02T05:14:16.977Z,2.60
2019-02-02T05:15:52.022Z,2.60
2019-02-02T05:17:26.822Z,2.60
2019-02-02T05:19:01.958Z,2.60
2019-02-02T05:20:36.779Z,2.70
2019-02-02T05:22:12.062Z,2.70
2019-02-02T05:23:46.860Z,2.70
2019-02-02T05:25:21.921Z,2.60
2019-02-02T05:26:56.748Z,2.50
2019-02-02T05:28:31.537Z,2.50
2019-02-02T05:30:11.469Z,2.50
2019-02-02T05:31:50.144Z,2.60
2019-02-02T05:33:24.947Z,2.60
2019-02-02T05:35:00.013Z,2.60
2019-02-02T05:36:34.811Z,2.60
2019-02-02T05:38:09.792Z,2.50
2019-02-02T05:39:44.970Z,2.50
2019-02-02T05:41:19.785Z,2.50
2019-02-02T05:42:54.719Z,2.50
2019-02-02T05:44:29.895Z,2.60
2019-02-02T05:46:04.764Z,2.60
2019-02-02T05:47:39.834Z,2.60
2019-02-02T05:49:14.647Z,2.60
2019-02-02T05:50:49.600Z,2.70
2019-02-02T05:52:24.652Z,2.70
2019-02-02T05:53:59.479Z,2.60
2019-02-02T05:55:34.283Z,2.60
2019-02-02T05:57:09.093Z,2.60
2019-02-02T05:58:44.146Z,2.60
2019-02-02T06:00:28.664Z,2.50
2019-02-02T06:02:03.548Z,2.60
2019-02-02T06:03:38.961Z,2.50
2019-02-02T06:05:13.986Z,2.50
2019-02-02T06:06:48.800Z,2.50
2019-02-02T06:08:23.936Z,2.50
2019-02-02T06:09:59.066Z,2.50
2019-02-02T06:11:34.180Z,2.60
2019-02-02T06:13:11.660Z,2.50
2019-02-02T06:14:45.903Z,2.60
2019-02-02T06:16:20.872Z,2.60
2019-02-02T06:17:55.742Z,2.50
2019-02-02T06:19:30.848Z,2.50
2019-02-02T06:21:06.349Z,2.50
2019-02-02T06:22:41.231Z,2.50
2019-02-02T06:24:16.072Z,2.60
2019-02-02T06:25:50.896Z,2.50
2019-02-02T06:27:25.955Z,2.50
2019-02-02T06:29:00.745Z,2.50
2019-02-02T06:30:35.613Z,2.50
2019-02-02T06:32:11.849Z,2.50
2019-02-02T06:33:47.308Z,2.50
2019-02-02T06:35:22.180Z,2.50
2019-02-02T06:36:57.507Z,2.50
2019-02-02T06:38:32.384Z,2.50
2019-02-02T06:40:08.362Z,2.60
2019-02-02T06:41:43.147Z,2.50
2019-02-02T06:43:18.220Z,2.50
2019-02-02T06:44:53.106Z,2.50
2019-02-02T06:46:27.928Z,2.50
2019-02-02T06:48:04.978Z,2.50
2019-02-02T06:49:39.772Z,2.60
2019-02-02T06:51:17.714Z,2.60
2019-02-02T06:52:52.844Z,2.60
2019-02-02T06:54:31.668Z,2.60
2019-02-02T06:56:05.161Z,2.60
2019-02-02T06:57:40.364Z,2.60
2019-02-02T06:59:15.491Z,2.60
2019-02-02T07:00:56.337Z,2.60
2019-02-02T07:02:31.162Z,2.60
2019-02-02T07:04:07.635Z,2.60
2019-02-02T07:05:42.436Z,2.60
2019-02-02T07:07:17.239Z,2.70
2019-02-02T07:08:52.127Z,2.70
2019-02-02T07:10:28.787Z,2.70
2019-02-02T07:12:03.933Z,2.60
2019-02-02T07:13:38.786Z,2.60
2019-02-02T07:15:15.018Z,2.60
2019-02-02T07:16:49.839Z,2.70
2019-02-02T07:18:24.803Z,2.60
2019-02-02T07:19:59.597Z,2.60
2019-02-02T07:21:34.387Z,2.70
2019-02-02T07:23:11.235Z,2.70
2019-02-02T07:24:45.753Z,2.70
2019-02-02T07:26:21.046Z,2.70
2019-02-02T07:27:56.121Z,2.80
2019-02-02T07:29:31.288Z,2.80
2019-02-02T07:31:06.526Z,2.90
2019-02-02T07:32:41.624Z,2.80
2019-02-02T07:34:16.438Z,2.80
2019-02-02T07:35:54.022Z,2.80
2019-02-02T07:37:28.343Z,2.80
2019-02-02T07:39:04.791Z,2.90
2019-02-02T07:40:39.867Z,2.80
2019-02-02T07:42:15.783Z,2.90
2019-02-02T07:43:50.578Z,2.80
2019-02-02T07:45:30.718Z,2.80
2019-02-02T07:47:05.654Z,2.90
2019-02-02T07:48:40.529Z,2.80
2019-02-02T07:50:16.741Z,2.90
2019-02-02T07:51:51.606Z,2.90
2019-02-02T07:53:27.014Z,2.90
2019-02-02T07:55:02.771Z,2.80
2019-02-02T07:56:39.892Z,2.80
2019-02-02T07:58:14.773Z,2.80
2019-02-02T07:59:52.344Z,2.80
2019-02-02T08:01:29.757Z,2.90
2019-02-02T08:03:11.647Z,2.90
2019-02-02T08:04:51.136Z,2.90
2019-02-02T08:06:27.838Z,3.00
2019-02-02T08:08:05.887Z,3.00
2019-02-02T08:09:47.400Z,3.00
2019-02-02T08:11:27.332Z,3.00
2019-02-02T08:13:12.171Z,3.00
2019-02-02T08:14:50.179Z,3.00
2019-02-02T08:16:34.532Z,3.00
2019-02-02T08:18:15.677Z,3.00
2019-02-02T08:19:58.133Z,3.10
2019-02-02T08:21:41.547Z,3.00
2019-02-02T08:23:25.782Z,3.00
2019-02-02T08:25:08.212Z,3.00
2019-02-02T08:26:51.941Z,3.10
2019-02-02T08:28:36.714Z,3.10
2019-02-02T08:30:29.946Z,3.20
2019-02-02T08:32:16.064Z,3.20
2019-02-02T08:34:01.515Z,3.30
2019-02-02T08:35:46.985Z,3.30
2019-02-02T08:37:30.426Z,3.30
2019-02-02T08:39:28.719Z,3.30
2019-02-02T08:41:02.967Z,3.30
2019-02-02T08:42:47.170Z,3.30
2019-02-02T08:44:30.353Z,3.20
2019-02-02T08:46:15.448Z,3.20
2019-02-02T08:48:03.238Z,3.20
2019-02-02T08:49:49.768Z,3.30
2019-02-02T08:51:33.914Z,3.30
2019-02-02T08:53:16.621Z,3.40
2019-02-02T08:55:01.082Z,3.40
2019-02-02T08:56:48.075Z,3.50
2019-02-02T08:58:37.051Z,3.60
2019-02-02T09:00:26.019Z,3.70
2019-02-02T09:02:11.828Z,3.70
2019-02-02T09:03:58.386Z,3.70
2019-02-02T09:05:46.663Z,3.70
2019-02-02T09:07:37.979Z,3.70
2019-02-02T09:09:22.293Z,3.80
2019-02-02T09:11:09.897Z,3.70
2019-02-02T09:12:57.105Z,3.70
2019-02-02T09:14:45.356Z,3.70
2019-02-02T09:16:33.112Z,3.70
2019-02-02T09:18:19.929Z,3.70
2019-02-02T09:20:07.455Z,3.70
2019-02-02T09:21:56.281Z,3.70
2019-02-02T09:23:44.213Z,3.70
2019-02-02T09:25:31.241Z,3.70
2019-02-02T09:27:17.896Z,3.60
2019-02-02T09:29:04.291Z,3.70
2019-02-02T09:30:49.494Z,3.70
2019-02-02T09:32:36.299Z,3.70
2019-02-02T09:34:22.590Z,3.70
2019-02-02T09:36:16.774Z,3.80
2019-02-02T09:38:01.907Z,3.80
2019-02-02T09:39:49.396Z,4.00
2019-02-02T09:41:35.959Z,4.10
2019-02-02T09:43:22.163Z,4.00
2019-02-02T09:45:10.739Z,4.00
2019-02-02T09:46:55.833Z,4.00
2019-02-02T09:48:44.269Z,4.10
2019-02-02T09:50:31.778Z,4.10
2019-02-02T09:52:17.894Z,4.20
2019-02-02T09:57:36.926Z,4.30
2019-02-02T10:11:34.085Z,4.30
2019-02-02T10:13:21.676Z,4.50
2019-02-02T10:18:36.486Z,4.50
2019-02-02T10:20:27.982Z,4.40
2019-02-02T10:22:14.670Z,4.40
2019-02-02T10:24:01.843Z,4.50
2019-02-02T10:25:50.318Z,4.40
2019-02-02T10:27:38.168Z,4.40
2019-02-02T10:29:25.784Z,4.30
2019-02-02T10:31:13.493Z,4.20
2019-02-02T10:33:01.723Z,4.20
2019-02-02T10:34:48.703Z,4.20
2019-02-02T10:36:36.121Z,4.10
2019-02-02T10:38:21.827Z,4.10
2019-02-02T10:40:08.581Z,4.10
2019-02-02T10:41:56.242Z,4.00
2019-02-02T10:43:44.044Z,4.00
2019-02-02T10:45:31.082Z,4.00
2019-02-02T10:47:17.794Z,4.10
2019-02-02T10:49:04.671Z,4.10
2019-02-02T10:50:51.841Z,4.00
2019-02-02T10:52:39.230Z,4.00
2019-02-02T10:54:25.636Z,4.00
2019-02-02T10:56:12.619Z,4.00
2019-02-02T10:58:02.539Z,4.00
2019-02-02T10:59:50.681Z,4.00
2019-02-02T11:01:37.051Z,4.00
2019-02-02T11:03:29.291Z,4.00
2019-02-02T11:05:19.580Z,4.00
2019-02-02T11:07:06.292Z,4.00
2019-02-02T11:08:52.601Z,4.00
2019-02-02T11:10:40.437Z,4.00
2019-02-02T11:12:30.278Z,4.00
2019-02-02T11:14:20.174Z,4.00
2019-02-02T11:16:08.590Z,4.00
2019-02-02T11:18:01.166Z,4.00
2019-02-02T11:19:49.880Z,4.00
2019-02-02T11:21:38.239Z,4.00
2019-02-02T11:23:25.019Z,3.90
2019-02-02T11:25:14.034Z,4.00
2019-02-02T11:27:01.907Z,4.00
2019-02-02T11:28:52.485Z,3.90
2019-02-02T11:30:42.145Z,3.90
2019-02-02T11:32:33.936Z,4.00
2019-02-02T11:34:24.283Z,4.10
2019-02-02T11:36:13.295Z,4.10
2019-02-02T11:38:05.161Z,4.20
2019-02-02T11:39:55.613Z,4.20
2019-02-02T11:41:44.587Z,4.20
2019-02-02T11:43:35.070Z,4.20
2019-02-02T11:45:23.150Z,4.20
2019-02-02T11:47:11.253Z,4.10
2019-02-02T11:49:03.883Z,4.10
2019-02-02T11:50:52.921Z,4.00
2019-02-02T11:52:42.931Z,4.00
2019-02-02T11:54:31.036Z,4.00
2019-02-02T11:56:19.912Z,4.00
2019-02-02T11:58:06.767Z,3.90
2019-02-02T11:59:55.995Z,3.90
2019-02-02T12:01:45.022Z,3.80
2019-02-02T12:03:34.631Z,3.80
2019-02-02T12:05:24.386Z,3.80
2019-02-02T12:07:12.690Z,3.90
2019-02-02T12:09:02.133Z,3.80
2019-02-02T12:10:51.551Z,3.90
2019-02-02T12:12:42.180Z,3.90
2019-02-02T12:14:30.991Z,3.90
2019-02-02T12:16:20.938Z,4.00
2019-02-02T12:43:08.351Z,4.00
2019-02-02T12:44:56.029Z,3.60
2019-02-02T12:46:46.066Z,3.40
2019-02-02T12:48:35.549Z,3.40
2019-02-02T12:50:23.400Z,3.40
2019-02-02T12:52:11.962Z,3.40
2019-02-02T12:54:00.907Z,3.50
2019-02-02T12:55:50.166Z,3.60
2019-02-02T12:57:40.513Z,3.50
2019-02-02T12:59:32.361Z,3.60
2019-02-02T13:01:22.906Z,3.60
2019-02-02T13:03:12.767Z,3.50
2019-02-02T13:05:03.260Z,3.40
2019-02-02T13:06:52.538Z,3.40
2019-02-02T13:08:41.445Z,3.40
2019-02-02T13:10:31.921Z,3.40
2019-02-02T13:12:21.626Z,3.50
2019-02-02T13:14:10.693Z,3.50
2019-02-02T13:16:02.325Z,3.40
2019-02-02T13:17:51.752Z,3.40
2019-02-02T13:19:43.724Z,3.50
2019-02-02T13:21:34.848Z,3.50
2019-02-02T13:23:23.478Z,3.40
2019-02-02T13:25:12.714Z,3.40
2019-02-02T13:27:00.762Z,3.40
2019-02-02T13:28:49.378Z,3.40
2019-02-02T13:30:43.210Z,3.40
2019-02-02T13:32:30.871Z,3.50
2019-02-02T13:34:26.109Z,3.50
2019-02-02T13:36:17.972Z,3.50
2019-02-02T13:38:07.981Z,3.50
2019-02-02T13:39:58.102Z,3.60
2019-02-02T13:41:48.102Z,3.60
2019-02-02T13:43:38.407Z,3.60
2019-02-02T13:45:29.197Z,3.50
2019-02-02T13:47:19.922Z,3.60
2019-02-02T13:49:08.961Z,3.50
2019-02-02T13:50:56.983Z,3.40
2019-02-02T13:52:46.927Z,3.30
2019-02-02T13:54:37.079Z,3.40
2019-02-02T13:56:25.441Z,3.30
2019-02-02T13:58:24.555Z,3.40
2019-02-02T14:00:17.913Z,3.60
2019-02-02T14:02:07.507Z,3.80
2019-02-02T14:03:57.512Z,4.00
2019-02-02T14:05:46.673Z,4.10
2019-02-02T14:07:38.255Z,4.00
2019-02-02T14:09:26.635Z,3.90
2019-02-02T14:11:14.495Z,3.60
2019-02-02T14:13:04.501Z,3.40
2019-02-02T14:14:54.911Z,3.30
2019-02-02T14:16:45.697Z,3.10
2019-02-02T14:18:33.619Z,3.30
2019-02-02T14:20:23.433Z,3.50
2019-02-02T14:22:13.166Z,3.50
2019-02-02T14:24:01.992Z,3.50
2019-02-02T14:25:51.033Z,3.50
2019-02-02T14:27:38.999Z,3.60
2019-02-02T14:29:26.418Z,3.60
2019-02-02T14:31:15.283Z,3.60
2019-02-02T14:33:13.609Z,3.70
2019-02-02T14:34:56.588Z,3.60
2019-02-02T14:36:45.158Z,3.40
2019-02-02T14:38:32.666Z,3.20
2019-02-02T14:40:21.253Z,2.90
2019-02-02T14:42:11.147Z,2.80
2019-02-02T14:49:16.746Z,2.70
2019-02-02T16:28:11.824Z,2.30
2019-02-02T16:30:01.812Z,2.20
2019-02-02T16:31:53.175Z,2.20
2019-02-02T16:33:45.263Z,2.20
2019-02-02T16:35:33.294Z,2.20
2019-02-02T16:37:24.613Z,2.30
2019-02-02T16:39:15.783Z,2.30
2019-02-02T16:41:05.075Z,2.30
2019-02-02T16:42:58.212Z,2.30
2019-02-02T16:44:49.034Z,2.20
2019-02-02T16:46:39.598Z,2.10
2019-02-02T16:48:31.736Z,2.00
2019-02-02T16:50:22.940Z,2.00
2019-02-02T16:52:11.768Z,2.10
2019-02-02T16:54:00.590Z,2.00
2019-02-02T16:55:52.306Z,2.00
2019-02-02T16:57:45.797Z,2.10
